KZZV/ZZV METAR and TAF weather

Enter ICAO airport designator
Station Type Date Time Source
KZZV METAR 2019/06/27 09:53 UTC NOAA

KZZV 270953Z AUTO 00000KT 10SM CLR 20/18 A3018 RMK AO2 SLP211 T02000178


Station Type Date Time Source
KZZV Decoded METAR 2019/06/27 09:53 UTC NOAA

ZANESVILLE MUNICIPAL AIRPORT , OH, United States (KZZV) 39-57N 81-54W 268M
Jun 27, 2019 - 05:53 AM EDT / 2019.06.27 0953 UTC
Wind: Calm:0
Visibility: 10 mile(s):0
Sky conditions: clear
Temperature: 68.0 F (20.0 C)
Dew Point: 64.0 F (17.8 C)
Relative Humidity: 87%
Pressure (altimeter): 30.18 in. Hg (1022 hPa)
ob: KZZV 270953Z AUTO 00000KT 10SM CLR 20/18 A3018 RMK AO2 SLP211 T02000178
cycle: 10

Station Type Date Time Source
KZZV TAF 2019/06/27 06:22 UTC NOAA

TAF KZZV 270520Z 2706/2806 27006KT P6SM BKN250
FM271600 26005KT P6SM BKN050
FM280000 VRB03KT P6SM SCT250

Example: see airport list